Susan Ann — WCY5700 — position and weather

sailwx.info

Track history (hours):
 
Tides and Currents Weather Stations Pressure Air Temp Water Temp Dewpoint Dewpoint Depression Visibility Wind Speed Wind Dir Waves Ship Positions

Susan Ann

Owner: CROSS SOUND FERRY SERVICES INC, NEW LONDON, CT. More information available from US FCC via Universal Licensing System and Coast Guard Vessel Documentation Center.

Last reported at 2016-Apr-30 20:05 UTC. Time now 2016-Apr-30 20:41 UTC.
Position N 41°18' W 072°05'.

Length 72 m; draft 4 m.

Type: Passenger vessel. MMSI: 367354350.

Date/timePositionNaut miles runAvg speedWind from/ knotsBaromVisibWave heightAir tempDewpointWater temp
2016-Apr-30 20:05N 41°18' W 072°05'712.5
2016-Apr-30 19:30N 41°12' W 072°11'4 3.9
2016-Apr-30 18:29N 41°09' W 072°14'6 2.0
2016-Apr-30 15:33N 41°14' W 072°10'0 0.0
2016-Apr-30 11:31N 41°14' W 072°10'6 0.5
2016-Apr-30 00:21N 41°09' W 072°14'911.2
2016-Apr-29 23:30N 41°17' W 072°07'4 2.1
2016-Apr-29 21:33N 41°13' W 072°10'5 4.0
2016-Apr-29 20:15N 41°09' W 072°14'4 1.6
2016-Apr-29 17:33N 41°13' W 072°11'5 3.5
2016-Apr-29 16:17N 41°09' W 072°14'6 0.4
2016-Apr-28 23:33N 41°14' W 072°09'6 5.0
2016-Apr-28 22:21N 41°09' W 072°14'5 1.8
2016-Apr-28 19:33N 41°13' W 072°11'5 3.7
2016-Apr-28 18:10N 41°09' W 072°14'6 2.2
2016-Apr-28 15:33N 41°14' W 072°09'6 0.4
2016-Apr-28 00:23N 41°09' W 072°14'810.0
2016-Apr-27 23:33N 41°15' W 072°07'4 1.8
2016-Apr-27 21:32N 41°13' W 072°10'4 2.7
2016-Apr-27 20:09N 41°10' W 072°13'5 1.8
2016-Apr-27 17:33N 41°14' W 072°10'5 3.9
2016-Apr-27 16:09N 41°09' W 072°14'813.3
2016-Apr-27 15:33N 41°16' W 072°08'3 0.2
2016-Apr-26 23:32N 41°13' W 072°10'5 4.1
2016-Apr-26 22:17N 41°09' W 072°14'4 1.3
2016-Apr-26 19:27N 41°12' W 072°12'4 3.0
2016-Apr-26 18:16N 41°09' W 072°14'4 1.6
2016-Apr-26 15:30N 41°13' W 072°11'3 0.2
2016-Apr-25 20:14N 41°10' W 072°13'9 4.3
2016-Apr-25 18:04N 41°17' W 072°05'713.6
2016-Apr-25 17:33N 41°12' W 072°12'4 3.7
2016-Apr-25 16:33N 41°09' W 072°14'13 0.8
2016-Apr-25 00:14N 41°21' W 072°05'912.4
2016-Apr-24 23:33N 41°13' W 072°10'5 5.0
2016-Apr-24 22:32N 41°09' W 072°14'5 1.6
2016-Apr-24 19:33N 41°13' W 072°10'5 4.8
2016-Apr-24 18:33N 41°09' W 072°14'8 8.1
2016-Apr-24 17:34N 41°16' W 072°08'8 0.5
2016-Apr-24 00:12N 41°09' W 072°14'0 0.0
2016-Apr-23 20:22N 41°09' W 072°14'6 2.0
2016-Apr-23 17:33N 41°14' W 072°10'6 5.6
2016-Apr-23 16:32N 41°09' W 072°14'4 0.2
2016-Apr-22 19:30N 41°12' W 072°11'3 1.8
2016-Apr-22 18:06N 41°11' W 072°14'2 0.8
2016-Apr-22 15:26N 41°12' W 072°12'4 0.2
2016-Apr-22 00:15N 41°09' W 072°14'811.1
2016-Apr-21 23:33N 41°15' W 072°08'4 2.4
2016-Apr-21 22:05N 41°18' W 072°05'713.5
2016-Apr-21 21:33N 41°13' W 072°11'4 4.1
2016-Apr-21 20:32N 41°09' W 072°14'8 8.3
2016-Apr-21 19:33N 41°16' W 072°08'2 1.1
2016-Apr-21 17:33N 41°14' W 072°10'6 5.8
2016-Apr-21 16:33N 41°09' W 072°14'6 0.3
2016-Apr-20 23:33N 41°14' W 072°09'6 5.9
2016-Apr-20 22:33N 41°09' W 072°14'8 7.8
2016-Apr-20 21:33N 41°15' W 072°08'  
Track history (hours):
 
Tides and Currents Weather Stations Pressure Air Temp Water Temp Dewpoint Dewpoint Depression Visibility Wind Speed Wind Dir Waves Ship Positions

Susan Ann

Owner: CROSS SOUND FERRY SERVICES INC, NEW LONDON, CT. More information available from US FCC via Universal Licensing System and Coast Guard Vessel Documentation Center.

Last reported at 2016-Apr-30 20:05 UTC. Time now 2016-Apr-30 20:41 UTC.
Position N 41°18' W 072°05'.

Length 72 m; draft 4 m.

Type: Passenger vessel. MMSI: 367354350.

Date/timePositionNaut miles runAvg speedWind from/ knotsBaromVisibWave heightAir tempDewpointWater temp
2016-Apr-30 20:05N 41°18' W 072°05'712.5
2016-Apr-30 19:30N 41°12' W 072°11'4 3.9
2016-Apr-30 18:29N 41°09' W 072°14'6 2.0
2016-Apr-30 15:33N 41°14' W 072°10'0 0.0
2016-Apr-30 11:31N 41°14' W 072°10'6 0.5
2016-Apr-30 00:21N 41°09' W 072°14'911.2
2016-Apr-29 23:30N 41°17' W 072°07'4 2.1
2016-Apr-29 21:33N 41°13' W 072°10'5 4.0
2016-Apr-29 20:15N 41°09' W 072°14'4 1.6
2016-Apr-29 17:33N 41°13' W 072°11'5 3.5
2016-Apr-29 16:17N 41°09' W 072°14'6 0.4
2016-Apr-28 23:33N 41°14' W 072°09'6 5.0
2016-Apr-28 22:21N 41°09' W 072°14'5 1.8
2016-Apr-28 19:33N 41°13' W 072°11'5 3.7
2016-Apr-28 18:10N 41°09' W 072°14'6 2.2
2016-Apr-28 15:33N 41°14' W 072°09'6 0.4
2016-Apr-28 00:23N 41°09' W 072°14'810.0
2016-Apr-27 23:33N 41°15' W 072°07'4 1.8
2016-Apr-27 21:32N 41°13' W 072°10'4 2.7
2016-Apr-27 20:09N 41°10' W 072°13'5 1.8
2016-Apr-27 17:33N 41°14' W 072°10'5 3.9
2016-Apr-27 16:09N 41°09' W 072°14'813.3
2016-Apr-27 15:33N 41°16' W 072°08'3 0.2
2016-Apr-26 23:32N 41°13' W 072°10'5 4.1
2016-Apr-26 22:17N 41°09' W 072°14'4 1.3
2016-Apr-26 19:27N 41°12' W 072°12'4 3.0
2016-Apr-26 18:16N 41°09' W 072°14'4 1.6
2016-Apr-26 15:30N 41°13' W 072°11'3 0.2
2016-Apr-25 20:14N 41°10' W 072°13'9 4.3
2016-Apr-25 18:04N 41°17' W 072°05'713.6
2016-Apr-25 17:33N 41°12' W 072°12'4 3.7
2016-Apr-25 16:33N 41°09' W 072°14'13 0.8
2016-Apr-25 00:14N 41°21' W 072°05'912.4
2016-Apr-24 23:33N 41°13' W 072°10'5 5.0
2016-Apr-24 22:32N 41°09' W 072°14'5 1.6
2016-Apr-24 19:33N 41°13' W 072°10'5 4.8
2016-Apr-24 18:33N 41°09' W 072°14'8 8.1
2016-Apr-24 17:34N 41°16' W 072°08'8 0.5
2016-Apr-24 00:12N 41°09' W 072°14'0 0.0
2016-Apr-23 20:22N 41°09' W 072°14'6 2.0
2016-Apr-23 17:33N 41°14' W 072°10'6 5.6
2016-Apr-23 16:32N 41°09' W 072°14'4 0.2
2016-Apr-22 19:30N 41°12' W 072°11'3 1.8
2016-Apr-22 18:06N 41°11' W 072°14'2 0.8
2016-Apr-22 15:26N 41°12' W 072°12'4 0.2
2016-Apr-22 00:15N 41°09' W 072°14'811.1
2016-Apr-21 23:33N 41°15' W 072°08'4 2.4
2016-Apr-21 22:05N 41°18' W 072°05'713.5
2016-Apr-21 21:33N 41°13' W 072°11'4 4.1
2016-Apr-21 20:32N 41°09' W 072°14'8 8.3
2016-Apr-21 19:33N 41°16' W 072°08'2 1.1
2016-Apr-21 17:33N 41°14' W 072°10'6 5.8
2016-Apr-21 16:33N 41°09' W 072°14'6 0.3
2016-Apr-20 23:33N 41°14' W 072°09'6 5.9
2016-Apr-20 22:33N 41°09' W 072°14'8 7.8
2016-Apr-20 21:33N 41°15' W 072°08'  

Dump ship's entire track history